Phoenix, Arizona
Traffic Map
Current Weather Conditions
Phoenix, Arizona
Broken Clouds
Broken Clouds
60°
Feels Like: 60°
Wind Chill: 60° Ceiling: 14000
Heat Index: 60° Visibility: 10mi
Dew Point: 45° Wind: 5mph
Humidity: 57% Direction: 100° (E)
Pressure: 29.9in Gusts: 0mph
Raw Report DataKPHX 172251Z 10004KT 10SM SCT080 SCT100 BKN140 BKN200 16/07 A2990 RMK AO2 SLP118 T01560072 $
Traffic Incident Summary
Active as of:
Severity:
Category:
InformationThere was an issue retrieving the traffic information for this location. Please try a different location or try again shortly.
Advertisements